Latest Weather Observations for Giles*

IDW60801

Issued at 10:02 am WST Friday 29 May 2015 (issued every 30 minutes, with the page automatically refreshed every 10 minutes)

About weather observations | Map of weather stations | Latest weather observations for WA | Other Formats
Station Details ID: 013017 Name: GILES METEOROLOGICAL OFFICE Lat: -25.03 Lon: 128.30 Height: 598.0 m
Data from the previous 72 hours. | See also: Recent months at Giles*

* Giles observations are collected in the South Australia time zone, which includes daylight saving in the summer period. Therefore, Rain since 9am value is with respect to South Australia local time.

Date/Time
WST
Temp
°C
App
Temp
°C
Dew
Point
Rel
Hum
%
Delta-T
°C
Wind Press
QNH
hPa
Press
MSL
hPa
Rain
since 9 am
mm
Dir
 
Spd
km/h
Gust
km/h
Spd
kts
Gust
kts
29/09:30am 16.3 16.6 14.9 91 0.8 WSW 7 9 4 5 1022.4 1020.7 1.8
29/09:00am 16.4 16.5 14.5 88 1.1 SSW 7 11 4 6 1022.3 1020.6 1.6
29/08:30am 15.9 16.4 15.1 95 0.5 NW 6 7 3 4 1022.7 1020.9 1.6
29/08:00am 15.9 15.3 14.7 93 0.7 SW 11 15 6 8 1022.8 1021.0 1.0
29/07:30am 15.9 17.6 15.1 95 0.5 CALM 0 6 0 3 1022.8 1021.0 6.0
29/07:00am 15.6 15.6 15.3 98 0.2 ESE 9 11 5 6 1022.1 1020.4 5.4
29/06:30am 15.5 15.1 15.3 99 0.1 SE 11 13 6 7 1022.0 1020.2 4.6
29/06:00am 15.6 16.0 15.4 99 0.1 SSE 7 11 4 6 1021.9 1020.1 3.8
29/05:30am 15.7 15.4 15.4 98 0.2 ESE 11 15 6 8 1021.4 1019.6 3.2
29/05:00am 15.6 16.2 15.3 98 0.2 E 6 7 3 4 1021.5 1019.7 2.8
29/04:30am 15.6 17.0 15.3 98 0.2 ENE 2 7 1 4 1021.4 1019.6 2.2
29/04:00am 15.5 16.5 15.3 99 0.1 SE 4 7 2 4 1021.1 1019.3 1.4
29/03:30am 15.5 15.5 15.3 99 0.1 SSW 9 11 5 6 1021.1 1019.3 1.2
29/03:00am 15.6 15.6 15.3 98 0.2 SW 9 13 5 7 1021.4 1019.6 0.6
29/02:30am 15.7 16.3 15.2 97 0.3 SSE 6 7 3 4 1020.9 1019.1 0.4
29/02:00am 15.8 16.1 15.1 96 0.4 SE 7 7 4 4 1021.0 1019.2 0.4
29/01:30am 16.0 16.4 15.2 95 0.5 SSE 7 9 4 5 1021.2 1019.4 0.4
29/01:00am 16.3 15.8 14.9 91 0.8 ENE 11 15 6 8 1020.9 1019.1 0.4
29/12:30am 15.9 15.9 15.1 95 0.5 SSE 9 13 5 7 1021.0 1019.2 0.4
29/12:00am 16.2 16.7 15.0 93 0.7 ESE 6 9 3 5 1021.0 1019.2 0.4
 
Date/Time
WST
Temp
°C
App
Temp
°C
Dew
Point
Rel
Hum
%
Delta-T
°C
Wind Press
QNH
hPa
Press
MSL
hPa
Rain
since 9 am
mm
Dir
 
Spd
km/h
Gust
km/h
Spd
kts
Gust
kts
28/11:30pm 16.4 16.3 14.9 91 0.9 E 9 11 5 6 1021.3 1019.5 0.4
28/11:00pm 16.3 16.6 14.9 91 0.8 ENE 7 9 4 5 1021.6 1019.8 0.4
28/10:30pm 16.4 18.1 15.1 92 0.8 CALM 0 6 0 3 1021.9 1020.1 0.4
28/10:00pm 16.7 17.1 14.7 88 1.2 SSE 6 9 3 5 1021.4 1019.6 0.4
28/09:30pm 16.7 18.5 15.4 92 0.8 CALM 0 0 0 0 1022.1 1020.4 0.4
28/09:00pm 16.8 17.7 15.1 90 1.0 SE 4 7 2 4 1021.8 1020.0 0.4
28/08:30pm 17.1 17.0 14.9 87 1.3 S 9 13 5 7 1021.5 1019.7 0.4
28/08:00pm 17.5 17.3 14.8 84 1.6 NE 9 15 5 8 1020.9 1019.1 0.4
28/07:30pm 17.5 17.3 14.8 84 1.6 E 9 11 5 6 1020.6 1018.9 0.4
28/07:00pm 17.6 17.4 14.7 83 1.7 SSE 9 11 5 6 1020.9 1019.1 0.4
28/06:30pm 18.0 16.9 14.4 79 2.1 SSW 13 17 7 9 1021.2 1019.4 0.4
28/06:00pm 18.1 15.9 14.4 79 2.2 SW 19 24 10 13 1020.7 1019.0 0.4
28/05:30pm 18.2 17.9 15.4 84 1.7 S 11 20 6 11 1019.1 1017.2 0.4
28/05:00pm 18.6 16.6 14.9 79 2.2 E 19 26 10 14 1018.2 1016.4 0.4
28/04:30pm 18.4 17.3 15.4 83 1.8 E 15 22 8 12 1019.4 1017.6 0.4
28/04:00pm 19.4 19.0 15.1 76 2.6 ENE 11 13 6 7 1019.6 1017.8 0.2
28/03:30pm 19.9 19.3 14.5 71 3.2 SSW 11 15 6 8 1019.8 1018.0 0.2
28/03:00pm 21.1 20.7 12.5 58 5.0 S 6 7 3 4 1019.7 1017.9 0.2
28/02:30pm 21.1 20.4 12.1 56 5.2 S 7 9 4 5 1019.4 1017.6 0.2
28/02:00pm 20.8 20.7 13.3 62 4.4 S 6 7 3 4 1019.1 1017.2 0.2
28/01:30pm 20.8 20.1 13.1 61 4.5 SE 9 13 5 7 1018.7 1016.9 0.2
28/01:00pm 20.5 19.7 13.0 62 4.4 E 9 13 5 7 1018.8 1017.0 0.2
28/12:30pm 20.5 19.1 13.3 63 4.2 E 13 17 7 9 1019.1 1017.2 0.2
28/12:00pm 20.1 18.8 13.6 66 3.8 ESE 13 19 7 10 1019.3 1017.5 0.2
28/11:30am 18.8 17.4 14.4 75 2.6 E 15 20 8 11 1019.9 1018.1 0.2
28/11:00am 18.4 17.6 14.0 75 2.6 ESE 11 15 6 8 1020.6 1018.9 0.0
28/10:30am 18.4 17.1 13.8 74 2.7 ESE 13 15 7 8 1020.7 1019.0 0.0
28/10:00am 17.9 16.8 14.2 79 2.2 ESE 13 17 7 9 1021.1 1019.3 0.0
28/09:30am 17.6 16.5 14.4 81 1.9 ESE 13 17 7 9 1021.2 1019.4 0.0
28/09:00am 16.7 15.2 14.3 86 1.4 E 15 20 8 11 1021.3 1019.5 0.0
28/08:30am 15.9 14.1 14.4 91 0.9 E 17 20 9 11 1021.4 1019.6 0.0
28/08:00am 15.6 14.2 14.4 93 0.7 ESE 15 19 8 10 1021.4 1019.6 0.0
28/07:30am 15.1 13.9 13.9 92 0.7 ESE 13 17 7 9 1021.6 1019.8 6.8
28/07:00am 14.8 12.8 13.8 94 0.6 E 17 22 9 12 1021.4 1019.6 6.8
28/06:30am 14.6 12.5 13.6 94 0.6 E 17 20 9 11 1021.3 1019.5 6.8
28/06:00am 14.5 13.6 13.8 96 0.4 ENE 11 13 6 7 1021.2 1019.4 6.8
28/05:30am 14.4 13.6 13.9 97 0.3 E 11 15 6 8 1020.7 1019.0 6.8
28/05:00am 14.4 13.9 13.9 97 0.3 SE 9 11 5 6 1020.7 1019.0 6.8
28/04:30am 14.4 14.5 13.9 97 0.3 ESE 6 9 3 5 1021.0 1019.2 6.8
28/04:00am 14.4 13.5 13.7 96 0.4 SSE 11 17 6 9 1020.7 1019.0 6.2
28/03:30am 14.3 13.4 13.6 96 0.4 SE 11 13 6 7 1020.4 1018.6 6.0
28/03:00am 14.3 13.7 13.4 94 0.5 SSE 9 13 5 7 1020.5 1018.7 5.8
28/02:30am 14.3 13.0 13.8 97 0.3 SSE 13 20 7 11 1020.2 1018.4 5.8
28/02:00am 14.4 14.5 13.9 97 0.3 SSW 6 9 3 5 1021.4 1019.6 5.0
28/01:30am 14.5 14.6 13.8 96 0.4 SSW 6 9 3 5 1021.5 1019.7 4.4
28/01:00am 14.5 14.4 13.8 96 0.4 W 7 9 4 5 1021.9 1020.1 4.0
28/12:30am 14.6 13.4 13.9 96 0.4 W 13 20 7 11 1022.1 1020.4 3.4
28/12:00am 14.7 13.5 14.0 96 0.4 WSW 13 17 7 9 1021.9 1020.1 3.2
 
Date/Time
WST
Temp
°C
App
Temp
°C
Dew
Point
Rel
Hum
%
Delta-T
°C
Wind Press
QNH
hPa
Press
MSL
hPa
Rain
since 9 am
mm
Dir
 
Spd
km/h
Gust
km/h
Spd
kts
Gust
kts
27/11:30pm 15.0 14.8 13.6 91 0.8 W 7 11 4 6 1021.6 1019.8 2.4
27/11:00pm 15.0 15.5 14.0 94 0.6 NNW 4 7 2 4 1021.8 1020.0 2.0
27/10:30pm 15.0 13.7 13.6 91 0.8 N 13 19 7 10 1022.1 1020.4 2.0
27/10:00pm 15.0 12.5 13.6 91 0.8 NNW 19 24 10 13 1022.2 1020.5 2.0
27/09:30pm 15.0 13.0 14.0 94 0.6 N 17 20 9 11 1021.9 1020.1 1.6
27/09:00pm 15.4 14.1 13.7 90 1.0 NNW 13 19 7 10 1022.1 1020.4 1.2
27/08:30pm 16.1 14.6 13.1 82 1.7 NNW 13 15 7 8 1022.1 1020.4 1.0
27/08:00pm 17.1 17.0 13.3 78 2.2 NNW 6 9 3 5 1021.9 1020.1 0.2
27/07:30pm 18.4 18.4 11.0 62 4.1 WSW 2 7 1 4 1021.7 1019.9 0.0
27/07:00pm 18.6 17.3 11.1 61 4.2 N 9 13 5 7 1020.9 1019.1 0.0
27/06:30pm 19.2 16.9 10.5 57 4.8 NW 13 19 7 10 1021.3 1019.5 0.0
27/06:00pm 19.7 19.5 10.3 54 5.2 N 2 6 1 3 1020.3 1018.5 0.0
27/05:30pm 19.8 18.3 10.7 55 5.1 N 9 15 5 8 1019.6 1017.8 0.0
27/05:00pm 19.7 18.5 11.6 59 4.6 N 9 13 5 7 1019.4 1017.6 0.0
27/04:30pm 20.0 16.2 11.1 56 5.0 N 22 26 12 14 1019.4 1017.6 0.0
27/04:00pm 23.0 18.3 5.3 31 9.1 N 19 26 10 14 1019.2 1017.4 0.0
27/03:30pm 23.6 17.8 4.3 28 9.8 N 24 30 13 16 1018.7 1016.9 0.0
27/03:00pm 24.2 18.2 3.5 26 10.4 N 24 33 13 18 1018.3 1016.5 0.0
27/02:30pm 25.0 19.6 2.7 23 11.1 N 20 26 11 14 1018.2 1016.4 0.0
27/02:00pm 25.1 19.9 3.6 25 10.9 N 20 28 11 15 1018.0 1016.2 0.0
27/01:30pm 25.5 21.1 4.9 26 10.7 NNE 17 22 9 12 1018.3 1016.5 0.0
27/01:00pm 24.6 20.6 5.1 28 10.1 NNE 15 20 8 11 1018.7 1016.9 0.0
27/12:30pm 24.6 19.8 4.5 27 10.3 N 19 24 10 13 1018.9 1017.1 0.0
27/12:00pm 25.1 20.5 5.7 28 10.2 NNE 19 26 10 14 1019.5 1017.7 0.0
27/11:30am 25.0 20.3 5.2 28 10.3 NNE 19 26 10 14 1019.7 1017.9 0.0
27/11:00am 24.9 22.0 6.7 31 9.7 N 11 17 6 9 1020.1 1018.3 0.0
27/10:30am 23.0 20.1 8.3 39 8.0 ENE 13 19 7 10 1020.7 1019.0 0.0
27/10:00am 21.4 19.2 9.4 46 6.6 ENE 11 15 6 8 1021.3 1019.5 0.0
27/09:30am 20.6 18.4 9.5 49 6.1 E 11 15 6 8 1021.8 1020.0 0.0
27/09:00am 20.1 16.4 9.5 50 5.8 E 19 26 10 14 1022.0 1020.2 0.0
27/08:30am 19.0 15.9 10.3 57 4.8 E 17 24 9 13 1022.0 1020.2 0.0
27/08:00am 18.4 16.1 10.6 60 4.3 ESE 13 17 7 9 1022.1 1020.4 0.0
27/07:30am 17.1 14.4 10.5 65 3.6 ESE 15 22 8 12 1022.0 1020.2 0.2
27/07:00am 16.7 12.8 10.7 67 3.3 ESE 22 30 12 16 1021.4 1019.6 0.2
27/06:30am 15.6 12.1 10.8 73 2.6 ESE 20 28 11 15 1021.7 1019.9 0.2
27/06:00am 15.0 12.2 11.2 78 2.1 ESE 17 22 9 12 1021.7 1019.9 0.2
27/05:30am 15.2 12.0 11.2 77 2.2 ESE 19 26 10 14 1021.4 1019.6 0.2
27/05:00am 15.2 12.4 11.2 77 2.2 ESE 17 22 9 12 1021.2 1019.4 0.2
27/04:30am 14.2 11.8 11.5 84 1.5 ESE 15 17 8 9 1021.2 1019.4 0.2
27/04:00am 14.1 11.3 11.4 84 1.5 ESE 17 20 9 11 1021.1 1019.3 0.2
27/03:30am 14.6 12.2 11.3 80 1.8 ESE 15 20 8 11 1021.2 1019.4 0.2
27/03:00am 14.6 12.6 11.5 82 1.7 ESE 13 15 7 8 1021.7 1019.9 0.2
27/02:30am 15.4 13.0 11.4 77 2.2 ESE 15 20 8 11 1021.8 1020.0 0.2
27/02:00am 15.4 12.9 11.2 76 2.3 SE 15 17 8 9 1022.0 1020.2 0.2
27/01:30am 16.0 13.9 11.3 73 2.6 SE 13 17 7 9 1022.5 1020.8 0.2
27/01:00am 16.5 14.9 11.5 72 2.8 SE 11 17 6 9 1023.1 1021.3 0.2
27/12:30am 16.9 14.8 11.3 69 3.1 SSE 13 17 7 9 1023.2 1021.4 0.2
27/12:00am 17.2 15.1 11.1 67 3.4 SE 13 20 7 11 1023.2 1021.4 0.2
 
Date/Time
WST
Temp
°C
App
Temp
°C
Dew
Point
Rel
Hum
%
Delta-T
°C
Wind Press
QNH
hPa
Press
MSL
hPa
Rain
since 9 am
mm
Dir
 
Spd
km/h
Gust
km/h
Spd
kts
Gust
kts
26/11:30pm 17.4 14.8 10.7 65 3.7 SE 15 20 8 11 1023.5 1021.7 0.2
26/11:00pm 17.6 14.9 10.5 63 3.9 SE 15 20 8 11 1023.7 1022.0 0.2
26/10:30pm 17.9 15.4 9.8 59 4.4 SSE 13 19 7 10 1023.9 1022.2 0.2
26/10:00pm 18.1 15.6 9.6 57 4.6 SSE 13 20 7 11 1023.9 1022.2 0.2
26/09:30pm 18.5 15.7 8.5 52 5.3 SE 13 20 7 11 1023.8 1022.1 0.2
26/09:00pm 18.6 15.6 7.7 49 5.7 SE 13 19 7 10 1023.8 1022.1 0.2
26/08:30pm 18.5 16.3 7.8 49 5.6 S 9 13 5 7 1023.7 1022.0 0.2
26/08:00pm 18.8 16.3 8.2 50 5.6 SSE 11 13 6 7 1023.6 1021.9 0.2
26/07:30pm 18.7 16.8 9.2 54 5.1 SSE 9 9 5 5 1023.4 1021.6 0.2
26/07:00pm 19.5 18.3 9.4 52 5.5 SSE 6 7 3 4 1023.8 1022.1 0.2
26/06:30pm 20.3 18.2 8.1 45 6.5 SSE 9 13 5 7 1023.2 1021.4 0.2
26/06:00pm 20.8 19.3 8.3 44 6.7 SSE 6 9 3 5 1022.9 1021.1 0.2
26/05:30pm 21.2 19.4 8.1 43 7.0 S 7 9 4 5 1022.4 1020.7 0.2
26/05:00pm 21.8 18.6 7.0 38 7.8 S 13 17 7 9 1022.0 1020.2 0.2
26/04:30pm 22.7 18.7 6.5 35 8.5 S 17 22 9 12 1021.6 1019.8 0.2
26/04:00pm 24.1 23.3 6.3 31 9.4 CALM 0 0 0 0 1021.5 1019.7 0.2
26/03:30pm 24.7 23.1 4.7 27 10.3 ENE 2 6 1 3 1021.6 1019.8 0.2
26/03:00pm 25.2 22.2 4.0 25 10.8 SE 9 13 5 7 1021.2 1019.4 0.2
26/02:30pm 24.7 22.2 4.7 27 10.3 E 7 15 4 8 1021.3 1019.5 0.2
26/02:00pm 25.3 21.6 4.2 25 10.8 N 13 24 7 13 1021.3 1019.5 0.2
26/01:30pm 25.1 21.2 3.5 24 10.9 NNE 13 20 7 11 1021.4 1019.6 0.2
26/01:00pm 24.8 22.7 6.6 31 9.7 E 7 13 4 7 1021.8 1020.0 0.2
26/12:30pm 24.1 22.1 7.1 33 9.1 E 7 13 4 7 1022.0 1020.2 0.2
26/12:00pm 24.2 22.5 7.5 34 9.0 ESE 6 7 3 4 1022.4 1020.7 0.2
26/11:30am 23.3 21.1 5.5 31 9.2 SSE 6 11 3 6 1023.0 1021.2 0.2
26/11:00am 23.4 21.3 5.7 32 9.2 NNW 6 11 3 6 1023.4 1021.6 0.2
26/10:30am 23.1 20.5 6.0 33 8.9 ENE 9 13 5 7 1023.7 1022.0 0.2
26/10:00am 22.0 18.7 4.8 32 8.7 ENE 11 17 6 9 1024.1 1022.4 0.2
26/09:30am 21.1 17.4 4.5 33 8.3 ESE 13 19 7 10 1024.5 1022.7 0.0
26/09:00am 20.6 17.1 5.4 37 7.7 ESE 13 15 7 8 1024.7 1022.9 0.0

Other Formats:

Comma delimited format used in spreadsheet applications
http://www.bom.gov.au/fwo/IDW60801/IDW60801.94461.axf

JavaScript Object Notation format (JSON) in row-major order
http://www.bom.gov.au/fwo/IDW60801/IDW60801.94461.json